Strona główna
METAR-TAF:

METAR-TAF

Lotnisko :

Port lotniczy Sofia

Sofia, Bułgaria

Szerokość geograficzna: 42-39N, Długość geograficzna: 023-23E, wysokość: 586 m

Aktualna obserwacja pogody

Raport powstał 20 minut temu, godzina 22:00 UTC
Wiatr 5 kt od północ, zmienny między zachód i północno-północny wschód
Temperatura 15°C
Wilgotność 67%
Ciśnienie 1011 hPa
Widzialność 10 km lub więcej
Mało chmury na wysokości 8300 ft

METAR: LBSF 042200Z 36005KT 280V030 9999 FEW083 15/09 Q1011 NOSIG

czas: 01:20 (22:20 UTC)

Prognoza

Raport powstał 5 godziny i 20 minut temu, godzina 17:00 UTC
Prognoza ważna od 04 godzina 18 UTC do 05 godzina 18 UTC
Wiatr 10 kt od zachód
Widzialność 10 km lub więcej
Rozproszone chmury na wysokości 5000 ft
Stopniowe zmiany
od 04 godzina 18 UTC do 04 godzina 20 UTC
Wiatr 4 kt z kierunków zmiennych
Stopniowe zmiany
od 05 godzina 08 UTC do 05 godzina 10 UTC
Wiatr 14 kt od zachodnio-południowy zachód

TAF: LBSF 041700Z 0418/0518 27010KT 9999 SCT050 BECMG 0418/0420 VRB04KT BECMG 0508/0510 25014KT

Obserwacja i prognoza pogody dla ponad 4000 lotnisk (raport METAR i TAF).

Dostępne stacje oznaczono żółtymi i czerwonymi punktami na mapie.

Najedź kursorem aby zobaczyć nazwę stacji.

Kliknij aby zobaczyć obserwacje i prognozy pogody.

Aby zmienić mapę: kliknij na zielony przycisk z czarnym krzyżykiem, aby powiększyć; na zielony przycisk z myślnikiem, aby pomniejszyć; na zielone strzałki, aby przejść do map sąsiednich.


METAR-TAF: